sensor_id;sensor_type;location;lat;lon;timestamp;temperature;humidity
41435;DHT22;27177;22.262;114.192;2023-03-01T00:02:14;14.70;99.90
41435;DHT22;27177;22.262;114.192;2023-03-01T00:04:40;14.80;99.90
41435;DHT22;27177;22.262;114.192;2023-03-01T00:07:06;14.80;99.90
41435;DHT22;27177;22.262;114.192;2023-03-01T00:09:33;14.90;99.90
41435;DHT22;27177;22.262;114.192;2023-03-01T00:11:59;14.90;99.90
41435;DHT22;27177;22.262;114.192;2023-03-01T00:14:25;15.00;99.90
41435;DHT22;27177;22.262;114.192;2023-03-01T00:17:14;15.00;99.90
41435;DHT22;27177;22.262;114.192;2023-03-01T00:19:40;15.10;99.90
41435;DHT22;27177;22.262;114.192;2023-03-01T00:22:06;15.10;99.90
41435;DHT22;27177;22.262;114.192;2023-03-01T00:24:32;15.10;99.90
41435;DHT22;27177;22.262;114.192;2023-03-01T00:26:59;15.10;99.90
41435;DHT22;27177;22.262;114.192;2023-03-01T00:29:25;15.20;99.90
41435;DHT22;27177;22.262;114.192;2023-03-01T00:31:51;15.20;99.90
41435;DHT22;27177;22.262;114.192;2023-03-01T00:34:18;15.30;99.90
41435;DHT22;27177;22.262;114.192;2023-03-01T00:36:44;15.30;99.90
41435;DHT22;27177;22.262;114.192;2023-03-01T00:39:12;15.40;99.90
41435;DHT22;27177;22.262;114.192;2023-03-01T00:41:38;15.40;99.90
41435;DHT22;27177;22.262;114.192;2023-03-01T00:44:05;15.50;99.90
41435;DHT22;27177;22.262;114.192;2023-03-01T00:46:31;15.50;99.90
41435;DHT22;27177;22.262;114.192;2023-03-01T00:48:59;15.60;99.90
41435;DHT22;27177;22.262;114.192;2023-03-01T00:51:27;15.70;99.90
41435;DHT22;27177;22.262;114.192;2023-03-01T00:53:54;15.70;99.90
41435;DHT22;27177;22.262;114.192;2023-03-01T00:56:22;15.80;99.90
41435;DHT22;27177;22.262;114.192;2023-03-01T00:58:48;15.90;99.90
41435;DHT22;27177;22.262;114.192;2023-03-01T01:01:16;16.00;99.90
41435;DHT22;27177;22.262;114.192;2023-03-01T01:06:14;16.10;99.90
41435;DHT22;27177;22.262;114.192;2023-03-01T01:08:41;16.20;99.90
41435;DHT22;27177;22.262;114.192;2023-03-01T01:11:08;16.30;99.90
41435;DHT22;27177;22.262;114.192;2023-03-01T01:13:35;16.30;99.90
41435;DHT22;27177;22.262;114.192;2023-03-01T01:16:02;16.50;99.90
41435;DHT22;27177;22.262;114.192;2023-03-01T01:18:28;16.50;99.90
41435;DHT22;27177;22.262;114.192;2023-03-01T01:20:54;16.60;99.90
41435;DHT22;27177;22.262;114.192;2023-03-01T01:23:21;16.70;99.90
41435;DHT22;27177;22.262;114.192;2023-03-01T01:25:47;16.70;99.90
41435;DHT22;27177;22.262;114.192;2023-03-01T01:28:13;16.80;99.90
41435;DHT22;27177;22.262;114.192;2023-03-01T01:30:39;16.80;99.90
41435;DHT22;27177;22.262;114.192;2023-03-01T01:33:06;16.90;99.90
41435;DHT22;27177;22.262;114.192;2023-03-01T01:35:32;16.90;99.90
41435;DHT22;27177;22.262;114.192;2023-03-01T01:37:58;17.00;99.90
41435;DHT22;27177;22.262;114.192;2023-03-01T01:40:24;17.10;99.90
41435;DHT22;27177;22.262;114.192;2023-03-01T01:42:51;17.20;99.90
41435;DHT22;27177;22.262;114.192;2023-03-01T01:47:53;17.30;99.90
41435;DHT22;27177;22.262;114.192;2023-03-01T01:50:20;17.40;99.90
41435;DHT22;27177;22.262;114.192;2023-03-01T01:52:46;17.50;99.90
41435;DHT22;27177;22.262;114.192;2023-03-01T01:55:15;17.60;99.90
41435;DHT22;27177;22.262;114.192;2023-03-01T01:57:44;17.60;99.90
41435;DHT22;27177;22.262;114.192;2023-03-01T02:00:15;17.70;99.90
41435;DHT22;27177;22.262;114.192;2023-03-01T02:02:42;17.90;99.90
41435;DHT22;27177;22.262;114.192;2023-03-01T02:05:11;17.90;99.90
41435;DHT22;27177;22.262;114.192;2023-03-01T02:07:39;17.90;99.90
41435;DHT22;27177;22.262;114.192;2023-03-01T02:10:05;18.00;99.90
41435;DHT22;27177;22.262;114.192;2023-03-01T02:12:32;18.00;99.90
41435;DHT22;27177;22.262;114.192;2023-03-01T02:14:59;18.10;99.90
41435;DHT22;27177;22.262;114.192;2023-03-01T02:17:25;18.20;99.90
41435;DHT22;27177;22.262;114.192;2023-03-01T02:20:00;18.20;99.90
41435;DHT22;27177;22.262;114.192;2023-03-01T02:22:33;18.30;99.90
41435;DHT22;27177;22.262;114.192;2023-03-01T02:27:29;18.40;99.90
41435;DHT22;27177;22.262;114.192;2023-03-01T02:29:57;18.50;99.90
41435;DHT22;27177;22.262;114.192;2023-03-01T02:32:23;18.40;99.90
41435;DHT22;27177;22.262;114.192;2023-03-01T02:34:59;18.50;99.90
41435;DHT22;27177;22.262;114.192;2023-03-01T02:37:26;18.50;99.90
41435;DHT22;27177;22.262;114.192;2023-03-01T02:39:57;18.60;99.90
41435;DHT22;27177;22.262;114.192;2023-03-01T02:42:26;18.70;99.90
41435;DHT22;27177;22.262;114.192;2023-03-01T02:44:52;18.80;99.90
41435;DHT22;27177;22.262;114.192;2023-03-01T02:47:21;18.80;99.90
41435;DHT22;27177;22.262;114.192;2023-03-01T02:49:47;18.90;99.90
41435;DHT22;27177;22.262;114.192;2023-03-01T02:52:34;18.90;99.90
41435;DHT22;27177;22.262;114.192;2023-03-01T02:57:34;19.00;99.90
41435;DHT22;27177;22.262;114.192;2023-03-01T03:00:11;19.10;99.90
41435;DHT22;27177;22.262;114.192;2023-03-01T03:02:45;19.10;99.90
41435;DHT22;27177;22.262;114.192;2023-03-01T03:07:42;19.20;99.90
41435;DHT22;27177;22.262;114.192;2023-03-01T03:10:10;19.30;99.90
41435;DHT22;27177;22.262;114.192;2023-03-01T03:12:37;19.30;99.90
41435;DHT22;27177;22.262;114.192;2023-03-01T03:15:04;19.40;99.90
41435;DHT22;27177;22.262;114.192;2023-03-01T03:17:37;19.40;99.90
41435;DHT22;27177;22.262;114.192;2023-03-01T03:20:04;19.40;99.90
41435;DHT22;27177;22.262;114.192;2023-03-01T03:22:31;19.50;99.90
41435;DHT22;27177;22.262;114.192;2023-03-01T03:24:59;19.60;99.90
41435;DHT22;27177;22.262;114.192;2023-03-01T03:27:25;19.60;99.90
41435;DHT22;27177;22.262;114.192;2023-03-01T03:29:52;19.70;99.90
41435;DHT22;27177;22.262;114.192;2023-03-01T03:32:18;19.70;99.90
41435;DHT22;27177;22.262;114.192;2023-03-01T03:34:44;19.80;99.90
41435;DHT22;27177;22.262;114.192;2023-03-01T03:37:10;19.90;99.90
41435;DHT22;27177;22.262;114.192;2023-03-01T03:39:57;19.90;99.90
41435;DHT22;27177;22.262;114.192;2023-03-01T03:42:23;19.90;99.90
41435;DHT22;27177;22.262;114.192;2023-03-01T03:44:49;20.00;99.90
41435;DHT22;27177;22.262;114.192;2023-03-01T03:47:15;20.00;99.90
41435;DHT22;27177;22.262;114.192;2023-03-01T03:49:42;20.10;99.90
41435;DHT22;27177;22.262;114.192;2023-03-01T03:52:08;20.10;99.90
41435;DHT22;27177;22.262;114.192;2023-03-01T03:54:39;20.10;99.90
41435;DHT22;27177;22.262;114.192;2023-03-01T03:57:07;20.20;99.90
41435;DHT22;27177;22.262;114.192;2023-03-01T03:59:33;20.20;99.90
41435;DHT22;27177;22.262;114.192;2023-03-01T04:01:59;20.30;99.90
41435;DHT22;27177;22.262;114.192;2023-03-01T04:04:26;20.30;99.90
41435;DHT22;27177;22.262;114.192;2023-03-01T04:06:52;20.30;99.90
41435;DHT22;27177;22.262;114.192;2023-03-01T04:09:18;20.30;99.90
41435;DHT22;27177;22.262;114.192;2023-03-01T04:11:44;20.40;99.90
41435;DHT22;27177;22.262;114.192;2023-03-01T04:14:11;20.40;99.90
41435;DHT22;27177;22.262;114.192;2023-03-01T04:16:37;20.40;99.90
41435;DHT22;27177;22.262;114.192;2023-03-01T04:21:39;20.40;99.90
41435;DHT22;27177;22.262;114.192;2023-03-01T04:24:05;20.40;99.90
41435;DHT22;27177;22.262;114.192;2023-03-01T04:26:32;20.40;99.90
41435;DHT22;27177;22.262;114.192;2023-03-01T04:31:34;20.40;99.90
41435;DHT22;27177;22.262;114.192;2023-03-01T04:34:00;20.40;99.90
41435;DHT22;27177;22.262;114.192;2023-03-01T04:39:02;20.40;99.90
41435;DHT22;27177;22.262;114.192;2023-03-01T04:47:10;20.60;99.90
41435;DHT22;27177;22.262;114.192;2023-03-01T04:49:36;20.60;99.90
41435;DHT22;27177;22.262;114.192;2023-03-01T04:54:51;20.70;99.90
41435;DHT22;27177;22.262;114.192;2023-03-01T04:57:17;20.70;99.90
41435;DHT22;27177;22.262;114.192;2023-03-01T04:59:44;20.70;99.90
41435;DHT22;27177;22.262;114.192;2023-03-01T05:02:10;20.70;99.90
41435;DHT22;27177;22.262;114.192;2023-03-01T05:04:36;20.70;99.90
41435;DHT22;27177;22.262;114.192;2023-03-01T05:07:02;20.70;99.90
41435;DHT22;27177;22.262;114.192;2023-03-01T05:09:29;20.70;99.90
41435;DHT22;27177;22.262;114.192;2023-03-01T05:11:55;20.60;99.90
41435;DHT22;27177;22.262;114.192;2023-03-01T05:14:21;20.60;99.90
41435;DHT22;27177;22.262;114.192;2023-03-01T05:19:16;20.70;99.90
41435;DHT22;27177;22.262;114.192;2023-03-01T05:21:48;20.70;99.90
41435;DHT22;27177;22.262;114.192;2023-03-01T05:24:30;20.70;99.90
41435;DHT22;27177;22.262;114.192;2023-03-01T05:26:56;20.80;99.90
41435;DHT22;27177;22.262;114.192;2023-03-01T05:34:57;20.80;99.90
41435;DHT22;27177;22.262;114.192;2023-03-01T05:37:23;20.80;99.90
41435;DHT22;27177;22.262;114.192;2023-03-01T05:39:58;20.90;99.90
41435;DHT22;27177;22.262;114.192;2023-03-01T05:42:25;21.00;99.90
41435;DHT22;27177;22.262;114.192;2023-03-01T05:44:51;21.00;99.90
41435;DHT22;27177;22.262;114.192;2023-03-01T05:47:17;21.00;99.90
41435;DHT22;27177;22.262;114.192;2023-03-01T05:52:16;21.00;99.90
41435;DHT22;27177;22.262;114.192;2023-03-01T05:54:42;21.10;99.90
41435;DHT22;27177;22.262;114.192;2023-03-01T05:59:45;21.10;99.90
41435;DHT22;27177;22.262;114.192;2023-03-01T06:02:11;21.10;99.90
41435;DHT22;27177;22.262;114.192;2023-03-01T06:04:37;21.10;99.90
41435;DHT22;27177;22.262;114.192;2023-03-01T06:07:03;21.20;99.90
41435;DHT22;27177;22.262;114.192;2023-03-01T06:09:30;21.20;99.90
41435;DHT22;27177;22.262;114.192;2023-03-01T06:14:31;21.30;99.90
41435;DHT22;27177;22.262;114.192;2023-03-01T06:16:58;21.40;99.90
41435;DHT22;27177;22.262;114.192;2023-03-01T06:19:24;21.30;99.90
41435;DHT22;27177;22.262;114.192;2023-03-01T06:21:51;21.20;99.90
41435;DHT22;27177;22.262;114.192;2023-03-01T06:24:17;21.30;99.90
41435;DHT22;27177;22.262;114.192;2023-03-01T06:26:44;21.30;99.90
41435;DHT22;27177;22.262;114.192;2023-03-01T06:29:10;21.30;99.90
41435;DHT22;27177;22.262;114.192;2023-03-01T06:31:36;21.40;99.90
41435;DHT22;27177;22.262;114.192;2023-03-01T06:34:03;21.40;99.90
41435;DHT22;27177;22.262;114.192;2023-03-01T06:36:29;21.40;99.90
41435;DHT22;27177;22.262;114.192;2023-03-01T06:38:55;21.40;99.90
41435;DHT22;27177;22.262;114.192;2023-03-01T06:41:21;21.50;99.90
41435;DHT22;27177;22.262;114.192;2023-03-01T06:43:48;21.40;99.90
41435;DHT22;27177;22.262;114.192;2023-03-01T06:46:14;21.60;99.90
41435;DHT22;27177;22.262;114.192;2023-03-01T06:51:16;21.50;99.90
41435;DHT22;27177;22.262;114.192;2023-03-01T06:53:42;21.50;99.90
41435;DHT22;27177;22.262;114.192;2023-03-01T06:56:08;21.50;99.90
41435;DHT22;27177;22.262;114.192;2023-03-01T06:58:34;21.50;99.90
41435;DHT22;27177;22.262;114.192;2023-03-01T07:01:04;21.50;99.90
41435;DHT22;27177;22.262;114.192;2023-03-01T07:03:31;21.40;99.90
41435;DHT22;27177;22.262;114.192;2023-03-01T07:05:57;21.40;99.90
41435;DHT22;27177;22.262;114.192;2023-03-01T07:08:23;21.40;99.90
41435;DHT22;27177;22.262;114.192;2023-03-01T07:10:58;21.40;99.90
41435;DHT22;27177;22.262;114.192;2023-03-01T07:13:24;21.40;99.90
41435;DHT22;27177;22.262;114.192;2023-03-01T07:15:51;21.30;99.90
41435;DHT22;27177;22.262;114.192;2023-03-01T07:18:17;21.20;99.90
41435;DHT22;27177;22.262;114.192;2023-03-01T07:20:43;21.20;99.90
41435;DHT22;27177;22.262;114.192;2023-03-01T07:23:12;21.20;99.90
41435;DHT22;27177;22.262;114.192;2023-03-01T07:28:11;21.10;99.90
41435;DHT22;27177;22.262;114.192;2023-03-01T07:30:38;21.10;99.90
41435;DHT22;27177;22.262;114.192;2023-03-01T07:33:05;21.00;99.90
41435;DHT22;27177;22.262;114.192;2023-03-01T07:35:33;21.00;99.90
41435;DHT22;27177;22.262;114.192;2023-03-01T07:38:03;21.00;99.90
41435;DHT22;27177;22.262;114.192;2023-03-01T07:45:39;21.10;99.90
41435;DHT22;27177;22.262;114.192;2023-03-01T07:48:05;21.10;99.90
41435;DHT22;27177;22.262;114.192;2023-03-01T07:50:31;21.10;99.90
41435;DHT22;27177;22.262;114.192;2023-03-01T07:58:08;21.10;99.90
41435;DHT22;27177;22.262;114.192;2023-03-01T08:00:45;21.10;99.90
41435;DHT22;27177;22.262;114.192;2023-03-01T08:13:33;21.00;99.90
41435;DHT22;27177;22.262;114.192;2023-03-01T08:16:03;21.10;99.90
41435;DHT22;27177;22.262;114.192;2023-03-01T08:18:30;21.00;99.90
41435;DHT22;27177;22.262;114.192;2023-03-01T08:32:09;20.60;99.90
41435;DHT22;27177;22.262;114.192;2023-03-01T08:34:35;20.50;99.90
41435;DHT22;27177;22.262;114.192;2023-03-01T08:47:16;20.10;99.90
41435;DHT22;27177;22.262;114.192;2023-03-01T08:49:54;20.00;99.90
41435;DHT22;27177;22.262;114.192;2023-03-01T08:54:56;19.90;99.90
41435;DHT22;27177;22.262;114.192;2023-03-01T09:07:43;19.70;99.90
41435;DHT22;27177;22.262;114.192;2023-03-01T09:10:10;19.80;99.90
41435;DHT22;27177;22.262;114.192;2023-03-01T09:24:08;19.50;99.90
41435;DHT22;27177;22.262;114.192;2023-03-01T09:26:39;19.40;99.90
41435;DHT22;27177;22.262;114.192;2023-03-01T09:29:08;19.40;99.90
41435;DHT22;27177;22.262;114.192;2023-03-01T09:31:35;19.30;99.90
41435;DHT22;27177;22.262;114.192;2023-03-01T10:53:41;17.80;99.90
41435;DHT22;27177;22.262;114.192;2023-03-01T11:17:01;17.30;99.90
41435;DHT22;27177;22.262;114.192;2023-03-01T11:19:28;17.30;99.90
41435;DHT22;27177;22.262;114.192;2023-03-01T11:22:13;17.30;99.90
41435;DHT22;27177;22.262;114.192;2023-03-01T11:27:25;17.20;99.90
41435;DHT22;27177;22.262;114.192;2023-03-01T11:54:57;16.90;99.90
41435;DHT22;27177;22.262;114.192;2023-03-01T12:10:34;16.80;99.90
41435;DHT22;27177;22.262;114.192;2023-03-01T12:31:53;16.60;99.90
41435;DHT22;27177;22.262;114.192;2023-03-01T12:34:37;16.70;99.90
41435;DHT22;27177;22.262;114.192;2023-03-01T12:37:17;16.60;99.90
41435;DHT22;27177;22.262;114.192;2023-03-01T12:39:51;16.60;99.90
41435;DHT22;27177;22.262;114.192;2023-03-01T12:47:50;16.50;99.90
41435;DHT22;27177;22.262;114.192;2023-03-01T12:50:12;16.50;99.90
41435;DHT22;27177;22.262;114.192;2023-03-01T12:52:44;16.50;99.90
41435;DHT22;27177;22.262;114.192;2023-03-01T13:00:57;16.50;99.90
41435;DHT22;27177;22.262;114.192;2023-03-01T13:06:08;16.40;99.90
41435;DHT22;27177;22.262;114.192;2023-03-01T13:11:04;16.40;99.90
41435;DHT22;27177;22.262;114.192;2023-03-01T13:13:31;16.40;99.90
41435;DHT22;27177;22.262;114.192;2023-03-01T13:15:58;16.40;99.90
41435;DHT22;27177;22.262;114.192;2023-03-01T13:18:43;16.40;99.90
41435;DHT22;27177;22.262;114.192;2023-03-01T13:21:10;16.40;99.90
41435;DHT22;27177;22.262;114.192;2023-03-01T13:23:37;16.40;99.90
41435;DHT22;27177;22.262;114.192;2023-03-01T13:31:09;16.30;99.90
41435;DHT22;27177;22.262;114.192;2023-03-01T13:33:40;16.30;99.90
41435;DHT22;27177;22.262;114.192;2023-03-01T13:36:07;16.30;99.90
41435;DHT22;27177;22.262;114.192;2023-03-01T13:38:38;16.30;99.90
41435;DHT22;27177;22.262;114.192;2023-03-01T13:41:07;16.30;99.90
41435;DHT22;27177;22.262;114.192;2023-03-01T13:43:37;16.30;99.90
41435;DHT22;27177;22.262;114.192;2023-03-01T13:46:11;16.20;99.90
41435;DHT22;27177;22.262;114.192;2023-03-01T13:48:41;16.20;99.90
41435;DHT22;27177;22.262;114.192;2023-03-01T13:51:10;16.20;99.90
41435;DHT22;27177;22.262;114.192;2023-03-01T13:53:40;16.20;99.90
41435;DHT22;27177;22.262;114.192;2023-03-01T13:56:09;16.20;99.90
41435;DHT22;27177;22.262;114.192;2023-03-01T13:58:50;16.20;99.90
41435;DHT22;27177;22.262;114.192;2023-03-01T14:01:21;16.20;99.90
41435;DHT22;27177;22.262;114.192;2023-03-01T14:03:49;16.20;99.90
41435;DHT22;27177;22.262;114.192;2023-03-01T14:06:16;16.20;99.90
41435;DHT22;27177;22.262;114.192;2023-03-01T14:08:46;16.20;99.90
41435;DHT22;27177;22.262;114.192;2023-03-01T14:11:20;16.20;99.90
41435;DHT22;27177;22.262;114.192;2023-03-01T14:13:58;16.10;99.90
41435;DHT22;27177;22.262;114.192;2023-03-01T14:16:36;16.20;99.90
41435;DHT22;27177;22.262;114.192;2023-03-01T14:21:35;16.20;99.90
41435;DHT22;27177;22.262;114.192;2023-03-01T14:24:13;16.20;99.90
41435;DHT22;27177;22.262;114.192;2023-03-01T14:26:42;16.20;99.90
41435;DHT22;27177;22.262;114.192;2023-03-01T14:32:11;16.10;99.90
41435;DHT22;27177;22.262;114.192;2023-03-01T14:34:48;16.10;99.90
41435;DHT22;27177;22.262;114.192;2023-03-01T14:37:39;16.10;99.90
41435;DHT22;27177;22.262;114.192;2023-03-01T14:40:19;16.10;99.90
41435;DHT22;27177;22.262;114.192;2023-03-01T14:42:45;16.10;99.90
41435;DHT22;27177;22.262;114.192;2023-03-01T14:45:12;16.10;99.90
41435;DHT22;27177;22.262;114.192;2023-03-01T14:47:43;16.10;99.90
41435;DHT22;27177;22.262;114.192;2023-03-01T14:50:26;16.10;99.90
41435;DHT22;27177;22.262;114.192;2023-03-01T14:52:57;16.10;99.90
41435;DHT22;27177;22.262;114.192;2023-03-01T14:57:54;16.20;99.90
41435;DHT22;27177;22.262;114.192;2023-03-01T15:00:27;16.10;99.90
41435;DHT22;27177;22.262;114.192;2023-03-01T15:02:55;16.20;99.90
41435;DHT22;27177;22.262;114.192;2023-03-01T15:05:29;16.20;99.90
41435;DHT22;27177;22.262;114.192;2023-03-01T15:08:02;16.20;99.90
41435;DHT22;27177;22.262;114.192;2023-03-01T15:10:31;16.20;99.90
41435;DHT22;27177;22.262;114.192;2023-03-01T15:13:19;16.20;99.90
41435;DHT22;27177;22.262;114.192;2023-03-01T15:15:47;16.20;99.90
41435;DHT22;27177;22.262;114.192;2023-03-01T15:18:17;16.20;99.90
41435;DHT22;27177;22.262;114.192;2023-03-01T15:20:44;16.10;99.90
41435;DHT22;27177;22.262;114.192;2023-03-01T15:23:24;16.20;99.90
41435;DHT22;27177;22.262;114.192;2023-03-01T15:25:51;16.10;99.90
41435;DHT22;27177;22.262;114.192;2023-03-01T15:28:23;16.20;99.90
41435;DHT22;27177;22.262;114.192;2023-03-01T15:33:36;16.10;99.90
41435;DHT22;27177;22.262;114.192;2023-03-01T15:36:03;16.10;99.90
41435;DHT22;27177;22.262;114.192;2023-03-01T15:38:31;16.10;99.90
41435;DHT22;27177;22.262;114.192;2023-03-01T15:40:59;16.10;99.90
41435;DHT22;27177;22.262;114.192;2023-03-01T15:43:39;16.10;99.90
41435;DHT22;27177;22.262;114.192;2023-03-01T15:46:12;16.10;99.90
41435;DHT22;27177;22.262;114.192;2023-03-01T15:48:44;16.10;99.90
41435;DHT22;27177;22.262;114.192;2023-03-01T15:51:11;16.10;99.90
41435;DHT22;27177;22.262;114.192;2023-03-01T15:53:39;16.00;99.90
41435;DHT22;27177;22.262;114.192;2023-03-01T15:56:05;16.00;99.90
41435;DHT22;27177;22.262;114.192;2023-03-01T15:58:33;16.00;99.90
41435;DHT22;27177;22.262;114.192;2023-03-01T16:00:59;16.00;99.90
41435;DHT22;27177;22.262;114.192;2023-03-01T16:03:26;16.00;99.90
41435;DHT22;27177;22.262;114.192;2023-03-01T16:05:52;16.00;99.90
41435;DHT22;27177;22.262;114.192;2023-03-01T16:08:19;16.00;99.90
41435;DHT22;27177;22.262;114.192;2023-03-01T16:10:46;16.10;99.90
41435;DHT22;27177;22.262;114.192;2023-03-01T16:13:15;16.00;99.90
41435;DHT22;27177;22.262;114.192;2023-03-01T16:15:41;16.00;99.90
41435;DHT22;27177;22.262;114.192;2023-03-01T16:18:07;16.00;99.90
41435;DHT22;27177;22.262;114.192;2023-03-01T16:20:35;16.00;99.90
41435;DHT22;27177;22.262;114.192;2023-03-01T16:23:03;16.00;99.90
41435;DHT22;27177;22.262;114.192;2023-03-01T16:25:31;16.00;99.90
41435;DHT22;27177;22.262;114.192;2023-03-01T16:27:58;16.00;99.90
41435;DHT22;27177;22.262;114.192;2023-03-01T16:30:30;16.00;99.90
41435;DHT22;27177;22.262;114.192;2023-03-01T16:33:05;16.00;99.90
41435;DHT22;27177;22.262;114.192;2023-03-01T16:35:33;15.90;99.90
41435;DHT22;27177;22.262;114.192;2023-03-01T16:38:00;15.90;99.90
41435;DHT22;27177;22.262;114.192;2023-03-01T16:40:27;15.90;99.90
41435;DHT22;27177;22.262;114.192;2023-03-01T16:42:54;15.90;99.90
41435;DHT22;27177;22.262;114.192;2023-03-01T16:45:26;15.90;99.90
41435;DHT22;27177;22.262;114.192;2023-03-01T16:47:52;15.90;99.90
41435;DHT22;27177;22.262;114.192;2023-03-01T16:50:19;15.90;99.90
41435;DHT22;27177;22.262;114.192;2023-03-01T16:52:45;15.90;99.90
41435;DHT22;27177;22.262;114.192;2023-03-01T16:55:11;15.90;99.90
41435;DHT22;27177;22.262;114.192;2023-03-01T16:57:38;15.90;99.90
41435;DHT22;27177;22.262;114.192;2023-03-01T17:00:05;15.80;99.90
41435;DHT22;27177;22.262;114.192;2023-03-01T17:02:33;15.90;99.90
41435;DHT22;27177;22.262;114.192;2023-03-01T17:05:00;15.90;99.90
41435;DHT22;27177;22.262;114.192;2023-03-01T17:07:27;15.90;99.90
41435;DHT22;27177;22.262;114.192;2023-03-01T17:09:54;15.90;99.90
41435;DHT22;27177;22.262;114.192;2023-03-01T17:12:20;15.90;99.90
41435;DHT22;27177;22.262;114.192;2023-03-01T17:14:46;16.00;99.90
41435;DHT22;27177;22.262;114.192;2023-03-01T17:17:12;16.00;99.90
41435;DHT22;27177;22.262;114.192;2023-03-01T17:19:39;16.00;99.90
41435;DHT22;27177;22.262;114.192;2023-03-01T17:22:07;16.00;99.90
41435;DHT22;27177;22.262;114.192;2023-03-01T17:24:34;16.00;99.90
41435;DHT22;27177;22.262;114.192;2023-03-01T17:27:01;16.00;99.90
41435;DHT22;27177;22.262;114.192;2023-03-01T17:29:27;16.10;99.90
41435;DHT22;27177;22.262;114.192;2023-03-01T17:31:53;16.10;99.90
41435;DHT22;27177;22.262;114.192;2023-03-01T17:34:24;16.10;99.90
41435;DHT22;27177;22.262;114.192;2023-03-01T17:36:50;16.10;99.90
41435;DHT22;27177;22.262;114.192;2023-03-01T17:39:20;16.10;99.90
41435;DHT22;27177;22.262;114.192;2023-03-01T17:41:53;16.10;99.90
41435;DHT22;27177;22.262;114.192;2023-03-01T17:44:20;16.10;99.90
41435;DHT22;27177;22.262;114.192;2023-03-01T17:46:46;16.10;99.90
41435;DHT22;27177;22.262;114.192;2023-03-01T17:49:12;16.10;99.90
41435;DHT22;27177;22.262;114.192;2023-03-01T17:51:39;16.10;99.90
41435;DHT22;27177;22.262;114.192;2023-03-01T17:54:05;16.10;99.90
41435;DHT22;27177;22.262;114.192;2023-03-01T17:56:31;16.10;99.90
41435;DHT22;27177;22.262;114.192;2023-03-01T17:58:58;16.10;99.90
41435;DHT22;27177;22.262;114.192;2023-03-01T18:01:25;16.10;99.90
41435;DHT22;27177;22.262;114.192;2023-03-01T18:03:51;16.10;99.90
41435;DHT22;27177;22.262;114.192;2023-03-01T18:06:22;16.10;99.90
41435;DHT22;27177;22.262;114.192;2023-03-01T18:08:48;16.10;99.90
41435;DHT22;27177;22.262;114.192;2023-03-01T18:11:16;16.00;99.90
41435;DHT22;27177;22.262;114.192;2023-03-01T18:13:42;16.10;99.90
41435;DHT22;27177;22.262;114.192;2023-03-01T18:16:10;16.10;99.90
41435;DHT22;27177;22.262;114.192;2023-03-01T18:18:37;16.10;99.90
41435;DHT22;27177;22.262;114.192;2023-03-01T18:21:04;16.10;99.90
41435;DHT22;27177;22.262;114.192;2023-03-01T18:23:31;16.10;99.90
41435;DHT22;27177;22.262;114.192;2023-03-01T18:25:58;16.10;99.90
41435;DHT22;27177;22.262;114.192;2023-03-01T18:28:25;16.10;99.90
41435;DHT22;27177;22.262;114.192;2023-03-01T18:30:56;16.10;99.90
41435;DHT22;27177;22.262;114.192;2023-03-01T18:33:22;16.10;99.90
41435;DHT22;27177;22.262;114.192;2023-03-01T18:35:49;16.10;99.90
41435;DHT22;27177;22.262;114.192;2023-03-01T18:38:15;16.10;99.90
41435;DHT22;27177;22.262;114.192;2023-03-01T18:40:44;16.20;99.90
41435;DHT22;27177;22.262;114.192;2023-03-01T18:43:10;16.20;99.90
41435;DHT22;27177;22.262;114.192;2023-03-01T18:45:36;16.20;99.90
41435;DHT22;27177;22.262;114.192;2023-03-01T18:48:03;16.30;99.90
41435;DHT22;27177;22.262;114.192;2023-03-01T18:50:29;16.30;99.90
41435;DHT22;27177;22.262;114.192;2023-03-01T18:52:58;16.40;99.90
41435;DHT22;27177;22.262;114.192;2023-03-01T18:55:25;16.40;99.90
41435;DHT22;27177;22.262;114.192;2023-03-01T18:57:51;16.60;99.90
41435;DHT22;27177;22.262;114.192;2023-03-01T19:00:17;16.70;99.90
41435;DHT22;27177;22.262;114.192;2023-03-01T19:02:44;16.90;99.90
41435;DHT22;27177;22.262;114.192;2023-03-01T19:05:10;17.30;99.90
41435;DHT22;27177;22.262;114.192;2023-03-01T19:07:36;17.70;99.90
41435;DHT22;27177;22.262;114.192;2023-03-01T19:10:03;18.00;99.90
41435;DHT22;27177;22.262;114.192;2023-03-01T19:12:29;18.20;99.90
41435;DHT22;27177;22.262;114.192;2023-03-01T19:14:55;18.40;99.90
41435;DHT22;27177;22.262;114.192;2023-03-01T19:17:22;18.50;99.90
41435;DHT22;27177;22.262;114.192;2023-03-01T19:19:56;18.60;99.90
41435;DHT22;27177;22.262;114.192;2023-03-01T19:22:22;18.60;99.90
41435;DHT22;27177;22.262;114.192;2023-03-01T19:24:49;18.60;99.90
41435;DHT22;27177;22.262;114.192;2023-03-01T19:27:15;18.70;99.90
41435;DHT22;27177;22.262;114.192;2023-03-01T19:29:42;18.70;99.90
41435;DHT22;27177;22.262;114.192;2023-03-01T19:32:08;18.70;99.90
41435;DHT22;27177;22.262;114.192;2023-03-01T19:34:34;18.70;99.90
41435;DHT22;27177;22.262;114.192;2023-03-01T19:37:03;18.80;99.90
41435;DHT22;27177;22.262;114.192;2023-03-01T19:39:29;18.90;99.90
41435;DHT22;27177;22.262;114.192;2023-03-01T19:41:55;18.90;99.90
41435;DHT22;27177;22.262;114.192;2023-03-01T19:44:22;19.00;99.90
41435;DHT22;27177;22.262;114.192;2023-03-01T19:46:56;18.90;99.90
41435;DHT22;27177;22.262;114.192;2023-03-01T19:49:22;18.80;99.90
41435;DHT22;27177;22.262;114.192;2023-03-01T19:51:49;18.70;99.90
41435;DHT22;27177;22.262;114.192;2023-03-01T19:56:46;18.50;99.90
41435;DHT22;27177;22.262;114.192;2023-03-01T20:01:48;18.40;99.90
41435;DHT22;27177;22.262;114.192;2023-03-01T20:04:15;18.30;99.90
41435;DHT22;27177;22.262;114.192;2023-03-01T20:06:43;18.20;99.90
41435;DHT22;27177;22.262;114.192;2023-03-01T20:09:09;18.10;99.90
41435;DHT22;27177;22.262;114.192;2023-03-01T20:11:35;18.00;99.90
41435;DHT22;27177;22.262;114.192;2023-03-01T20:14:01;17.90;99.90
41435;DHT22;27177;22.262;114.192;2023-03-01T20:16:31;17.80;99.90
41435;DHT22;27177;22.262;114.192;2023-03-01T20:19:01;17.80;99.90
41435;DHT22;27177;22.262;114.192;2023-03-01T20:21:27;17.70;99.90
41435;DHT22;27177;22.262;114.192;2023-03-01T20:23:53;17.60;99.90